createdAt,value
2024-03-12T00:01:01.857Z,65.80
2024-03-12T00:03:29.155Z,62.70
2024-03-12T00:06:01.067Z,65.03
2024-03-12T00:08:31.566Z,66.63
2024-03-12T00:10:58.995Z,62.70
2024-03-12T00:13:27.905Z,70.90
2024-03-12T00:15:57.019Z,77.37
2024-03-12T00:18:26.769Z,63.30
2024-03-12T00:20:54.854Z,77.23
2024-03-12T00:23:23.806Z,77.80
2024-03-12T00:25:51.392Z,75.70
2024-03-12T00:28:18.500Z,69.77
2024-03-12T00:30:45.925Z,68.20
2024-03-12T00:33:13.512Z,71.83
2024-03-12T00:35:44.437Z,85.67
2024-03-12T00:38:12.283Z,81.20
2024-03-12T00:40:40.177Z,78.83
2024-03-12T00:43:08.928Z,82.23
2024-03-12T00:45:39.666Z,79.17
2024-03-12T00:48:08.420Z,80.87
2024-03-12T00:50:36.732Z,82.70
2024-03-12T00:53:03.949Z,80.93
2024-03-12T00:55:31.735Z,80.43
2024-03-12T00:57:59.930Z,86.30
2024-03-12T01:00:34.887Z,77.27
2024-03-12T01:03:02.809Z,85.27
2024-03-12T01:05:37.125Z,86.37
2024-03-12T01:08:04.595Z,82.73
2024-03-12T01:10:34.492Z,83.77
2024-03-12T01:13:03.127Z,87.47
2024-03-12T01:15:30.417Z,87.83
2024-03-12T01:17:58.115Z,83.90
2024-03-12T01:20:28.388Z,87.43
2024-03-12T01:22:55.995Z,92.97
2024-03-12T01:25:23.967Z,86.63
2024-03-12T01:27:56.502Z,88.30
2024-03-12T01:30:27.736Z,99.47
2024-03-12T01:32:56.723Z,86.40
2024-03-12T01:35:26.330Z,82.80
2024-03-12T01:37:54.445Z,79.83
2024-03-12T01:40:23.811Z,82.83
2024-03-12T01:42:51.716Z,89.80
2024-03-12T01:45:22.154Z,83.57
2024-03-12T01:47:50.719Z,94.17
2024-03-12T01:50:19.270Z,78.07
2024-03-12T01:52:47.434Z,88.57
2024-03-12T01:55:19.662Z,95.50
2024-03-12T01:57:47.941Z,88.03
2024-03-12T02:00:15.787Z,90.40
2024-03-12T02:02:43.430Z,85.60
2024-03-12T02:05:14.222Z,87.80
2024-03-12T02:07:46.929Z,87.60
2024-03-12T02:10:14.921Z,88.50
2024-03-12T02:12:42.728Z,91.40
2024-03-12T02:15:09.984Z,93.30
2024-03-12T02:17:37.160Z,82.53
2024-03-12T02:20:05.836Z,82.73
2024-03-12T02:22:32.932Z,96.37
2024-03-12T02:25:00.649Z,97.87
2024-03-12T02:27:27.944Z,89.03
2024-03-12T02:29:55.526Z,85.60
2024-03-12T02:32:24.148Z,89.07
2024-03-12T02:34:54.879Z,90.57
2024-03-12T02:37:24.881Z,93.90
2024-03-12T02:39:52.082Z,91.90
2024-03-12T02:42:19.205Z,99.57
2024-03-12T02:44:46.323Z,100.53
2024-03-12T02:47:13.452Z,81.30
2024-03-12T02:49:40.913Z,102.63
2024-03-12T02:52:08.082Z,98.80
2024-03-12T02:54:35.438Z,86.77
2024-03-12T02:57:03.190Z,107.37
2024-03-12T02:59:31.532Z,86.43
2024-03-12T03:01:58.801Z,97.80
2024-03-12T03:04:27.164Z,91.83
2024-03-12T03:06:58.782Z,97.83
2024-03-12T03:09:26.325Z,95.77
2024-03-12T03:11:53.531Z,98.50
2024-03-12T03:14:21.647Z,90.93
2024-03-12T03:16:49.380Z,94.53
2024-03-12T03:19:16.658Z,103.77
2024-03-12T03:21:43.861Z,97.23
2024-03-12T03:24:10.992Z,107.97
2024-03-12T03:26:38.067Z,99.90
2024-03-12T03:29:05.282Z,95.47
2024-03-12T03:31:33.326Z,86.83
2024-03-12T03:34:05.364Z,80.83
2024-03-12T03:36:33.343Z,97.47
2024-03-12T03:39:01.788Z,90.87
2024-03-12T03:41:31.224Z,93.80
2024-03-12T03:43:58.381Z,96.20
2024-03-12T03:46:26.108Z,81.83
2024-03-12T03:48:53.515Z,84.50
2024-03-12T03:51:21.020Z,87.30
2024-03-12T03:53:48.118Z,86.23
2024-03-12T03:56:16.818Z,86.83
2024-03-12T03:58:47.313Z,90.97
2024-03-12T04:01:15.090Z,88.90
2024-03-12T04:03:42.620Z,86.37
2024-03-12T04:06:09.846Z,92.80
2024-03-12T04:08:37.444Z,84.83
2024-03-12T04:11:05.050Z,86.20
2024-03-12T04:13:33.641Z,101.70
2024-03-12T04:16:01.045Z,91.73
2024-03-12T04:18:29.863Z,86.53
2024-03-12T04:20:57.525Z,84.63
2024-03-12T04:23:24.777Z,89.50
2024-03-12T04:25:52.315Z,91.80
2024-03-12T04:28:20.902Z,106.33
2024-03-12T04:30:51.573Z,98.97
2024-03-12T04:33:19.115Z,88.70
2024-03-12T04:35:46.753Z,89.17
2024-03-12T04:38:17.451Z,94.40
2024-03-12T04:40:48.219Z,89.33
2024-03-12T04:43:16.098Z,93.80
2024-03-12T04:45:43.343Z,88.87
2024-03-12T04:48:11.194Z,95.93
2024-03-12T04:50:38.351Z,94.50
2024-03-12T04:53:06.298Z,93.50
2024-03-12T04:55:38.021Z,100.50
2024-03-12T04:58:05.689Z,95.87
2024-03-12T05:00:33.263Z,96.37
2024-03-12T05:03:01.371Z,92.40
2024-03-12T05:05:28.584Z,103.37
2024-03-12T05:07:55.706Z,97.97
2024-03-12T05:10:22.979Z,95.87
2024-03-12T05:12:51.818Z,110.63
2024-03-12T05:15:19.150Z,107.80
2024-03-12T05:17:50.241Z,110.63
2024-03-12T05:20:19.295Z,111.87
2024-03-12T05:22:47.546Z,108.80
2024-03-12T05:25:24.212Z,114.97
2024-03-12T05:27:52.188Z,107.90
2024-03-12T05:30:21.831Z,108.07
2024-03-12T05:32:50.138Z,111.30
2024-03-12T05:35:31.002Z,114.77
2024-03-12T05:38:05.147Z,123.23
2024-03-12T05:40:58.094Z,115.13
2024-03-12T05:43:44.354Z,119.73
2024-03-12T05:46:30.405Z,120.03
2024-03-12T05:48:57.833Z,115.13
2024-03-12T05:51:25.018Z,128.67
2024-03-12T05:53:52.113Z,124.73
2024-03-12T05:56:21.003Z,108.07
2024-03-12T05:58:48.609Z,105.67
2024-03-12T06:01:16.613Z,116.70
2024-03-12T06:03:43.883Z,115.33
2024-03-12T06:06:11.341Z,106.90
2024-03-12T06:08:38.497Z,110.87
2024-03-12T06:11:05.763Z,105.77
2024-03-12T06:13:33.801Z,101.10
2024-03-12T06:16:01.149Z,100.50
2024-03-12T06:18:29.772Z,107.70
2024-03-12T06:20:57.047Z,106.37
2024-03-12T06:23:26.638Z,104.07
2024-03-12T06:25:54.323Z,95.93
2024-03-12T06:28:23.041Z,100.30
2024-03-12T06:30:50.341Z,96.77
2024-03-12T06:33:20.299Z,97.60
2024-03-12T06:35:50.461Z,93.43
2024-03-12T06:38:21.361Z,89.30
2024-03-12T06:40:49.507Z,90.43
2024-03-12T06:43:19.072Z,94.70
2024-03-12T06:45:47.917Z,76.10
2024-03-12T06:48:19.109Z,79.03
2024-03-12T06:50:46.918Z,95.77
2024-03-12T06:53:15.852Z,89.13
2024-03-12T06:55:43.107Z,76.10
2024-03-12T06:58:13.286Z,73.53
2024-03-12T07:00:46.135Z,76.70
2024-03-12T07:03:15.603Z,75.63
2024-03-12T07:05:48.672Z,74.23
2024-03-12T07:08:19.206Z,74.63
2024-03-12T07:10:47.069Z,66.97
2024-03-12T07:13:14.865Z,73.57
2024-03-12T07:15:46.566Z,70.80
2024-03-12T07:18:15.572Z,77.53
2024-03-12T07:20:42.869Z,68.43
2024-03-12T07:23:10.306Z,82.63
2024-03-12T07:25:37.920Z,80.83
2024-03-12T07:28:07.680Z,71.73
2024-03-12T07:30:36.292Z,76.27
2024-03-12T07:33:04.662Z,79.97
2024-03-12T07:35:35.144Z,72.97
2024-03-12T07:38:03.990Z,77.67
2024-03-12T07:40:31.733Z,76.27
2024-03-12T07:43:00.135Z,68.23
2024-03-12T07:45:28.173Z,69.93
2024-03-12T07:47:56.895Z,71.37
2024-03-12T07:50:25.060Z,70.70
2024-03-12T07:52:52.295Z,69.70
2024-03-12T07:55:19.608Z,75.83
2024-03-12T07:57:46.751Z,68.23
2024-03-12T08:00:17.960Z,79.10
2024-03-12T08:02:45.545Z,70.77
2024-03-12T08:05:13.470Z,75.67
2024-03-12T08:07:40.665Z,71.57
2024-03-12T08:10:11.217Z,65.17
2024-03-12T08:12:40.630Z,71.77
2024-03-12T08:15:08.640Z,67.20
2024-03-12T08:17:38.770Z,67.03
2024-03-12T08:20:07.427Z,61.17
2024-03-12T08:22:34.755Z,66.20
2024-03-12T08:25:02.238Z,61.53
2024-03-12T08:27:30.003Z,62.43
2024-03-12T08:29:58.644Z,61.67
2024-03-12T08:32:26.555Z,71.83
2024-03-12T08:34:53.875Z,69.97
2024-03-12T08:37:23.597Z,66.53
2024-03-12T08:39:55.014Z,72.43
2024-03-12T08:42:22.587Z,74.47
2024-03-12T08:44:49.784Z,67.43
2024-03-12T08:47:17.188Z,69.33
2024-03-12T08:49:44.762Z,68.10
2024-03-12T08:52:11.992Z,66.17
2024-03-12T08:54:39.299Z,67.83
2024-03-12T08:57:07.040Z,68.80
2024-03-12T08:59:34.944Z,66.63
2024-03-12T09:02:04.022Z,62.17
2024-03-12T09:04:32.234Z,58.77
2024-03-12T09:07:00.206Z,68.00
2024-03-12T09:09:27.958Z,61.13
2024-03-12T09:11:57.173Z,62.37
2024-03-12T09:14:24.908Z,58.60
2024-03-12T09:16:52.528Z,63.90
2024-03-12T09:19:19.737Z,65.10
2024-03-12T09:21:46.935Z,62.90
2024-03-12T09:24:16.397Z,54.47
2024-03-12T09:26:45.325Z,69.87
2024-03-12T09:29:14.316Z,69.47
2024-03-12T09:31:43.651Z,63.40
2024-03-12T09:34:12.079Z,60.63
2024-03-12T09:36:39.417Z,61.03
2024-03-12T09:39:12.487Z,62.67
2024-03-12T09:41:42.743Z,62.23
2024-03-12T09:44:12.376Z,65.90
2024-03-12T09:46:40.981Z,69.17
2024-03-12T09:49:08.995Z,65.37
2024-03-12T09:51:36.937Z,62.20
2024-03-12T09:54:05.241Z,63.17
2024-03-12T09:56:35.147Z,69.63
2024-03-12T09:59:02.698Z,64.87
2024-03-12T10:01:30.024Z,68.57
2024-03-12T10:03:57.337Z,65.93
2024-03-12T10:06:24.604Z,71.80
2024-03-12T10:08:57.432Z,68.07
2024-03-12T10:11:29.586Z,71.00
2024-03-12T10:14:00.215Z,73.20
2024-03-12T10:16:29.875Z,61.97
2024-03-12T10:19:16.131Z,72.03
2024-03-12T10:21:45.991Z,64.03
2024-03-12T10:24:14.667Z,58.33
2024-03-12T10:26:46.128Z,64.53
2024-03-12T10:29:14.718Z,65.57
2024-03-12T10:31:44.623Z,73.17
2024-03-12T10:34:14.833Z,59.30
2024-03-12T10:36:44.967Z,63.27
2024-03-12T10:39:15.503Z,72.27
2024-03-12T10:41:44.393Z,61.97
2024-03-12T10:44:12.592Z,65.53
2024-03-12T10:46:44.584Z,62.60
2024-03-12T10:49:13.399Z,60.37
2024-03-12T10:51:42.141Z,61.47
2024-03-12T10:54:15.592Z,55.50
2024-03-12T10:56:43.509Z,56.00
2024-03-12T10:59:13.610Z,61.53
2024-03-12T11:01:41.858Z,65.33
2024-03-12T11:04:12.613Z,61.00
2024-03-12T11:06:43.284Z,60.97
2024-03-12T11:09:19.550Z,58.37
2024-03-12T11:11:47.230Z,59.53
2024-03-12T11:14:14.330Z,53.43
2024-03-12T11:16:41.826Z,60.53
2024-03-12T11:19:20.704Z,64.43
2024-03-12T11:21:51.393Z,62.27
2024-03-12T11:24:28.438Z,63.10
2024-03-12T11:26:55.953Z,60.73
2024-03-12T11:29:43.044Z,63.43
2024-03-12T11:32:12.542Z,56.33
2024-03-12T11:34:41.336Z,59.07
2024-03-12T11:37:15.822Z,59.43
2024-03-12T11:39:43.121Z,63.50
2024-03-12T11:42:16.065Z,62.67
2024-03-12T11:44:56.886Z,64.00
2024-03-12T11:47:44.213Z,65.33
2024-03-12T11:50:31.216Z,63.53
2024-03-12T11:53:25.340Z,67.07
2024-03-12T11:55:59.189Z,64.70
2024-03-12T11:58:28.170Z,63.97
2024-03-12T12:00:55.541Z,65.10
2024-03-12T12:03:22.948Z,64.30
2024-03-12T12:05:51.652Z,63.10
2024-03-12T12:08:19.558Z,63.60
2024-03-12T12:11:01.029Z,58.93
2024-03-12T12:13:28.521Z,60.27
2024-03-12T12:15:57.696Z,62.57
2024-03-12T12:18:26.980Z,60.23
2024-03-12T12:20:54.706Z,63.33
2024-03-12T12:23:24.119Z,66.67
2024-03-12T12:25:51.557Z,66.70
2024-03-12T12:28:19.448Z,60.80
2024-03-12T12:30:46.717Z,61.67
2024-03-12T12:33:17.474Z,61.90
2024-03-12T12:35:46.646Z,62.03
2024-03-12T12:38:17.769Z,59.17
2024-03-12T12:40:46.596Z,58.63
2024-03-12T12:43:20.824Z,60.73
2024-03-12T12:45:48.239Z,62.73
2024-03-12T12:48:16.373Z,55.77
2024-03-12T12:50:44.476Z,61.03
2024-03-12T12:53:11.616Z,61.40
2024-03-12T12:55:38.780Z,54.97
2024-03-12T12:58:08.005Z,56.97
2024-03-12T13:00:40.327Z,57.93
2024-03-12T13:03:12.041Z,56.87
2024-03-12T13:05:42.460Z,52.83
2024-03-12T13:08:23.412Z,56.93
2024-03-12T13:11:05.877Z,56.57
2024-03-12T13:13:34.156Z,56.97
2024-03-12T13:16:18.896Z,64.75
2024-03-12T13:18:53.337Z,58.83
2024-03-12T13:21:22.824Z,59.72
2024-03-12T13:23:51.044Z,64.43
2024-03-12T13:26:18.928Z,57.88
2024-03-12T13:28:58.057Z,59.58
2024-03-12T13:31:26.208Z,56.13
2024-03-12T13:33:54.786Z,57.20
2024-03-12T13:36:23.348Z,56.53
2024-03-12T13:38:51.958Z,58.83
2024-03-12T13:41:22.956Z,60.85
2024-03-12T13:43:56.051Z,55.92
2024-03-12T13:46:27.737Z,61.40
2024-03-12T13:49:11.795Z,56.50
2024-03-12T13:51:39.235Z,55.10
2024-03-12T13:54:09.278Z,55.22
2024-03-12T13:56:37.783Z,57.63
2024-03-12T13:59:05.992Z,56.50
2024-03-12T14:01:33.825Z,56.33
2024-03-12T14:04:01.425Z,65.57
2024-03-12T14:06:29.417Z,55.83
2024-03-12T14:08:57.407Z,56.53
2024-03-12T14:11:27.559Z,58.00
2024-03-12T14:13:56.983Z,58.87
2024-03-12T14:16:25.122Z,57.28
2024-03-12T14:18:54.076Z,58.97
2024-03-12T14:21:22.530Z,55.07
2024-03-12T14:23:49.929Z,57.08
2024-03-12T14:26:20.095Z,59.05
2024-03-12T14:28:47.679Z,53.08
2024-03-12T14:31:15.248Z,53.50
2024-03-12T14:33:42.974Z,55.83
2024-03-12T14:36:10.799Z,56.50
2024-03-12T14:38:38.949Z,53.50
2024-03-12T14:41:07.490Z,54.40
2024-03-12T14:43:34.913Z,59.88
2024-03-12T14:46:02.291Z,57.90
2024-03-12T14:48:30.212Z,57.38
2024-03-12T14:50:57.635Z,58.00
2024-03-12T14:53:24.921Z,54.80
2024-03-12T14:55:53.240Z,51.80
2024-03-12T14:58:20.427Z,55.80
2024-03-12T15:00:47.597Z,53.97
2024-03-12T15:03:14.883Z,57.35
2024-03-12T15:05:42.842Z,52.75
2024-03-12T15:08:11.947Z,59.10
2024-03-12T15:10:39.512Z,53.45
2024-03-12T15:13:06.942Z,51.75
2024-03-12T15:15:34.731Z,53.67
2024-03-12T15:18:02.102Z,53.40
2024-03-12T15:20:30.428Z,58.88
2024-03-12T15:22:58.121Z,57.63
2024-03-12T15:25:26.542Z,58.60
2024-03-12T15:27:54.262Z,56.10
2024-03-12T15:30:22.900Z,57.60
2024-03-12T15:32:50.411Z,52.90
2024-03-12T15:35:17.665Z,53.72
2024-03-12T15:37:44.874Z,61.45
2024-03-12T15:40:16.611Z,63.80
2024-03-12T15:42:45.642Z,49.35
2024-03-12T15:45:16.290Z,56.33
2024-03-12T15:47:44.502Z,59.47
2024-03-12T15:50:17.148Z,54.90
2024-03-12T15:52:44.797Z,62.38
2024-03-12T15:55:13.418Z,57.92
2024-03-12T15:57:46.073Z,51.53
2024-03-12T16:00:16.841Z,58.08
2024-03-12T16:02:44.397Z,56.75
2024-03-12T16:05:11.798Z,51.63
2024-03-12T16:07:40.567Z,56.20
2024-03-12T16:10:11.559Z,55.47
2024-03-12T16:12:41.784Z,57.60
2024-03-12T16:15:11.986Z,57.95
2024-03-12T16:17:39.106Z,53.85
2024-03-12T16:20:13.239Z,63.00
2024-03-12T16:22:41.384Z,54.85
2024-03-12T16:25:09.664Z,54.33
2024-03-12T16:27:37.187Z,58.40
2024-03-12T16:30:05.187Z,50.25
2024-03-12T16:32:34.010Z,55.63
2024-03-12T16:35:01.301Z,54.35
2024-03-12T16:37:28.606Z,54.78
2024-03-12T16:39:55.950Z,58.08
2024-03-12T16:42:23.213Z,59.25
2024-03-12T16:44:53.192Z,60.65
2024-03-12T16:47:20.318Z,60.00
2024-03-12T16:49:48.197Z,60.97
2024-03-12T16:52:15.615Z,52.60
2024-03-12T16:54:42.984Z,57.15
2024-03-12T16:57:10.521Z,58.00
2024-03-12T16:59:37.733Z,55.42
2024-03-12T17:02:09.200Z,60.50
2024-03-12T17:04:37.959Z,58.22
2024-03-12T17:07:09.092Z,66.70
2024-03-12T17:09:38.267Z,62.28
2024-03-12T17:12:06.345Z,64.55
2024-03-12T17:14:36.303Z,64.65
2024-03-12T17:17:07.157Z,61.53
2024-03-12T17:19:36.448Z,70.45
2024-03-12T17:22:03.761Z,79.07
2024-03-12T17:24:32.038Z,82.32
2024-03-12T17:26:59.432Z,72.70
2024-03-12T17:29:26.844Z,84.18
2024-03-12T17:31:54.917Z,83.10
2024-03-12T17:34:22.703Z,85.63
2024-03-12T17:36:50.535Z,90.50
2024-03-12T17:39:19.898Z,87.77
2024-03-12T17:41:47.751Z,84.77
2024-03-12T17:44:15.169Z,92.87
2024-03-12T17:46:45.800Z,114.60
2024-03-12T17:49:19.794Z,140.83
2024-03-12T17:51:47.481Z,143.17
2024-03-12T17:54:16.612Z,137.70
2024-03-12T17:56:48.213Z,130.67
2024-03-12T17:59:20.095Z,117.70
2024-03-12T18:01:48.134Z,113.03
2024-03-12T18:04:15.807Z,116.43
2024-03-12T18:06:44.142Z,124.30
2024-03-12T18:09:16.590Z,98.87
2024-03-12T18:11:44.115Z,76.90
2024-03-12T18:14:11.577Z,87.67
2024-03-12T18:16:39.449Z,72.43
2024-03-12T18:19:07.390Z,72.87
2024-03-12T18:21:36.212Z,69.10
2024-03-12T18:24:05.738Z,67.87
2024-03-12T18:26:34.169Z,81.70
2024-03-12T18:29:04.167Z,79.47
2024-03-12T18:31:31.456Z,73.53
2024-03-12T18:33:58.992Z,65.40
2024-03-12T18:36:26.093Z,64.73
2024-03-12T18:38:53.194Z,71.63
2024-03-12T18:41:20.556Z,78.67
2024-03-12T18:43:47.740Z,86.10
2024-03-12T18:46:15.078Z,87.67
2024-03-12T18:48:47.062Z,98.27
2024-03-12T18:51:14.782Z,85.83
2024-03-12T18:53:41.994Z,87.87
2024-03-12T18:56:09.465Z,96.93
2024-03-12T18:58:36.846Z,98.70
2024-03-12T19:01:05.207Z,94.07
2024-03-12T19:03:38.599Z,104.53
2024-03-12T19:06:10.561Z,122.97
2024-03-12T19:08:46.109Z,166.07
2024-03-12T19:11:14.062Z,146.30
2024-03-12T19:13:42.683Z,141.60
2024-03-12T19:16:13.972Z,150.63
2024-03-12T19:18:49.470Z,133.03
2024-03-12T19:21:22.620Z,128.40
2024-03-12T19:23:50.184Z,130.07
2024-03-12T19:26:19.309Z,116.80
2024-03-12T19:28:47.002Z,126.23
2024-03-12T19:31:15.650Z,127.27
2024-03-12T19:33:44.867Z,134.83
2024-03-12T19:36:13.276Z,125.43
2024-03-12T19:38:40.662Z,188.53
2024-03-12T19:41:08.531Z,205.37
2024-03-12T19:43:35.929Z,256.00
2024-03-12T19:46:03.476Z,311.17
2024-03-12T19:48:31.505Z,270.90
2024-03-12T19:50:59.001Z,240.00
2024-03-12T19:53:26.182Z,222.63
2024-03-12T19:55:54.296Z,212.63
2024-03-12T19:58:21.613Z,224.17
2024-03-12T20:00:51.816Z,231.93
2024-03-12T20:03:24.041Z,222.07
2024-03-12T20:05:51.285Z,231.77
2024-03-12T20:08:20.012Z,216.47
2024-03-12T20:10:47.536Z,220.10
2024-03-12T20:13:15.008Z,239.00
2024-03-12T20:15:46.226Z,248.70
2024-03-12T20:18:15.021Z,268.47
2024-03-12T20:20:45.705Z,292.73
2024-03-12T20:23:12.865Z,324.00
2024-03-12T20:25:41.495Z,350.17
2024-03-12T20:28:11.240Z,350.80
2024-03-12T20:30:40.087Z,350.03
2024-03-12T20:33:09.763Z,351.90
2024-03-12T20:35:39.163Z,350.33
2024-03-12T20:38:14.771Z,327.53
2024-03-12T20:40:42.367Z,318.97
2024-03-12T20:43:09.652Z,338.30
2024-03-12T20:45:39.336Z,320.27
2024-03-12T20:48:11.584Z,341.23
2024-03-12T20:50:40.801Z,492.67
2024-03-12T20:53:08.132Z,458.03
2024-03-12T20:55:36.922Z,399.33
2024-03-12T20:58:04.189Z,315.87
2024-03-12T21:00:34.871Z,307.17
2024-03-12T21:03:02.195Z,311.83
2024-03-12T21:05:31.034Z,349.87
2024-03-12T21:07:58.442Z,356.37
2024-03-12T21:10:25.807Z,376.17
2024-03-12T21:12:54.034Z,344.33
2024-03-12T21:15:23.568Z,257.70
2024-03-12T21:17:51.254Z,229.87
2024-03-12T21:20:33.625Z,236.03
2024-03-12T21:23:01.231Z,229.23
2024-03-12T21:25:28.500Z,226.63
2024-03-12T21:27:58.660Z,243.37
2024-03-12T21:30:26.228Z,236.63
2024-03-12T21:32:54.736Z,234.00
2024-03-12T21:35:21.947Z,239.53
2024-03-12T21:37:49.183Z,229.83
2024-03-12T21:40:17.391Z,253.20
2024-03-12T21:42:44.784Z,259.43
2024-03-12T21:45:13.135Z,264.93
2024-03-12T21:47:41.451Z,261.63
2024-03-12T21:50:15.992Z,255.97
2024-03-12T21:52:43.901Z,270.80
2024-03-12T21:55:12.073Z,289.10
2024-03-12T21:57:40.013Z,284.00
2024-03-12T22:00:24.865Z,299.07
2024-03-12T22:02:52.139Z,296.37
2024-03-12T22:05:22.660Z,296.37
2024-03-12T22:07:50.428Z,302.53
2024-03-12T22:10:18.098Z,313.20
2024-03-12T22:12:45.338Z,287.67
2024-03-12T22:15:13.119Z,303.27
2024-03-12T22:17:40.674Z,303.37
2024-03-12T22:20:08.602Z,311.43
2024-03-12T22:22:38.397Z,309.10
2024-03-12T22:25:05.879Z,274.13
2024-03-12T22:27:33.138Z,311.10
2024-03-12T22:30:00.537Z,316.93
2024-03-12T22:32:29.577Z,309.97
2024-03-12T22:35:00.756Z,297.40
2024-03-12T22:37:31.956Z,290.27
2024-03-12T22:39:59.254Z,291.83
2024-03-12T22:42:26.725Z,287.73
2024-03-12T22:44:54.940Z,282.67
2024-03-12T22:47:22.305Z,285.80
2024-03-12T22:49:49.607Z,262.63
2024-03-12T22:52:16.984Z,255.93
2024-03-12T22:54:44.454Z,248.17
2024-03-12T22:57:11.985Z,252.63
2024-03-12T22:59:40.830Z,268.93
2024-03-12T23:02:10.508Z,255.00
2024-03-12T23:04:37.772Z,258.23
2024-03-12T23:07:05.113Z,261.20
2024-03-12T23:09:33.459Z,204.47
2024-03-12T23:12:02.053Z,172.17
2024-03-12T23:14:31.001Z,130.13
2024-03-12T23:16:59.522Z,114.27
2024-03-12T23:19:28.682Z,97.83
2024-03-12T23:21:55.882Z,84.47
2024-03-12T23:24:24.062Z,75.73
2024-03-12T23:26:55.879Z,63.47
2024-03-12T23:29:23.057Z,68.47
2024-03-12T23:31:51.649Z,70.80
2024-03-12T23:34:18.841Z,65.20
2024-03-12T23:36:46.183Z,59.80
2024-03-12T23:39:16.311Z,60.43
2024-03-12T23:41:43.530Z,46.00
2024-03-12T23:44:13.995Z,45.43
2024-03-12T23:46:43.167Z,42.20
2024-03-12T23:49:10.286Z,46.53
2024-03-12T23:51:37.462Z,47.73
2024-03-12T23:54:07.104Z,43.33
2024-03-12T23:56:37.988Z,51.57
2024-03-12T23:59:06.537Z,51.00
